Terminal Aerodrome Forecast
Issued by NWS Newport/Morehead City, NC

Home | Current Version | Previous Version | Graphics & Text | Print | Product List | Glossary On
Versions: 1 2 3 4 5 6 7 8 9 10 11 12
875
FTUS42 KMHX 211720
TAFEWN
TAF
KEWN 211720Z 2118/2218 26008G15KT P6SM VCTS SCT030CB
     FM220600 31006KT P6SM SCT050=

USA.gov is the U.S. government's official web portal to all federal, state and local government web resources and services.